Treetops Village, Michigan
Current Conditions -  °F | °C
As of 4:18 PM on Saturday 22 Nov 2014 (Local Time) from KGLR Reporting Station
Moderate Fog Moderate Fog  
Wind Chill: 27°   Ceiling: 200
Heat Index: 36°   Visibility: 0.25mi
Dew Point: 36°   Wind: 15mph
Humidity: 100%   Direction: 240°WSW
Pressure: 29.75"   Gusts: NA
Location:  44.9934°N, 84.6766°W
Report Text: KGLR 222118Z AUTO 24013KT 1/4SM FG OVC002 02/02 A2975 RMK AO2 T00220022
Loading
Personal Weather Stations






























Interactive Weather Map New forecast layout! Learn more

10-Day Weather Forecast

Advertisements
Track Severe Weather on mobile